createdAt,value
2022-08-03T00:00:05.230Z,86.13
2022-08-03T00:03:08.759Z,86.37
2022-08-03T00:06:04.542Z,86.40
2022-08-03T00:08:40.948Z,86.41
2022-08-03T00:11:17.058Z,86.45
2022-08-03T00:13:53.552Z,86.42
2022-08-03T00:16:29.584Z,86.41
2022-08-03T00:19:06.159Z,86.40
2022-08-03T00:21:42.293Z,86.44
2022-08-03T00:24:18.584Z,86.60
2022-08-03T00:26:54.708Z,86.70
2022-08-03T00:29:30.785Z,86.61
2022-08-03T00:32:07.976Z,86.64
2022-08-03T00:34:58.461Z,86.86
2022-08-03T00:37:40.755Z,87.02
2022-08-03T00:40:21.301Z,87.10
2022-08-03T00:43:00.096Z,87.10
2022-08-03T00:45:41.345Z,87.16
2022-08-03T00:48:29.549Z,87.22
2022-08-03T00:51:09.999Z,87.22
2022-08-03T00:53:46.480Z,87.23
2022-08-03T00:56:22.837Z,87.35
2022-08-03T00:59:01.864Z,87.55
2022-08-03T01:01:37.921Z,87.59
2022-08-03T01:04:13.885Z,87.62
2022-08-03T01:07:04.577Z,87.75
2022-08-03T01:10:01.880Z,87.85
2022-08-03T01:12:54.845Z,87.87
2022-08-03T01:15:49.696Z,87.97
2022-08-03T01:18:37.719Z,87.94
2022-08-03T01:21:23.465Z,87.94
2022-08-03T01:24:23.935Z,88.06
2022-08-03T01:27:18.979Z,88.19
2022-08-03T01:30:07.223Z,88.13
2022-08-03T01:33:00.969Z,88.09
2022-08-03T01:35:46.782Z,88.18
2022-08-03T01:38:30.713Z,88.21
2022-08-03T01:41:13.271Z,88.26
2022-08-03T01:44:03.053Z,88.23
2022-08-03T01:46:51.692Z,88.12
2022-08-03T01:49:31.343Z,88.10
2022-08-03T01:52:09.575Z,88.10
2022-08-03T01:54:50.600Z,88.15
2022-08-03T01:57:29.540Z,88.26
2022-08-03T02:00:09.598Z,88.31
2022-08-03T02:02:51.846Z,88.18
2022-08-03T02:05:31.092Z,88.08
2022-08-03T02:08:12.147Z,88.02
2022-08-03T02:10:51.108Z,88.00
2022-08-03T02:13:30.273Z,87.98
2022-08-03T02:16:08.726Z,87.96
2022-08-03T02:18:45.088Z,87.94
2022-08-03T02:21:56.447Z,87.95
2022-08-03T02:24:22.307Z,88.15
2022-08-03T02:27:02.503Z,88.23
2022-08-03T02:29:43.583Z,88.28
2022-08-03T02:32:26.551Z,88.45
2022-08-03T02:35:06.116Z,88.52
2022-08-03T02:37:51.510Z,88.50
2022-08-03T02:40:29.521Z,88.51
2022-08-03T02:43:12.026Z,88.59
2022-08-03T02:45:54.321Z,88.60
2022-08-03T02:48:37.063Z,88.61
2022-08-03T02:51:14.213Z,88.72
2022-08-03T02:53:51.626Z,88.85
2022-08-03T02:56:29.507Z,89.02
2022-08-03T02:59:07.516Z,89.09
2022-08-03T03:01:45.658Z,89.32
2022-08-03T03:04:22.342Z,89.54
2022-08-03T03:07:06.751Z,89.50
2022-08-03T03:09:45.929Z,89.50
2022-08-03T03:12:23.783Z,89.49
2022-08-03T03:14:59.731Z,89.48
2022-08-03T03:17:38.597Z,89.42
2022-08-03T03:20:29.393Z,89.45
2022-08-03T03:23:05.720Z,89.40
2022-08-03T03:25:42.961Z,89.37
2022-08-03T03:28:19.768Z,89.31
2022-08-03T03:30:56.046Z,89.34
2022-08-03T03:33:32.201Z,89.30
2022-08-03T03:36:09.721Z,89.30
2022-08-03T03:38:45.740Z,89.30
2022-08-03T03:41:22.163Z,89.30
2022-08-03T03:43:58.613Z,89.35
2022-08-03T03:46:35.069Z,89.30
2022-08-03T03:49:11.614Z,89.21
2022-08-03T03:51:47.597Z,89.03
2022-08-03T03:54:25.504Z,88.55
2022-08-03T03:57:06.560Z,87.96
2022-08-03T03:59:46.314Z,87.61
2022-08-03T04:02:22.366Z,87.31
2022-08-03T04:05:16.075Z,87.18
2022-08-03T04:08:19.624Z,87.20
2022-08-03T04:11:19.327Z,86.48
2022-08-03T04:14:04.617Z,86.04
2022-08-03T04:16:47.287Z,85.54
2022-08-03T04:19:29.641Z,85.38
2022-08-03T04:22:11.888Z,85.20
2022-08-03T04:24:54.851Z,85.14
2022-08-03T04:27:37.608Z,84.31
2022-08-03T04:30:17.276Z,83.96
2022-08-03T04:32:54.352Z,84.02
2022-08-03T04:35:58.569Z,83.87
2022-08-03T04:38:37.663Z,83.84
2022-08-03T04:41:14.164Z,83.91
2022-08-03T04:43:52.945Z,83.76
2022-08-03T04:46:33.976Z,83.12
2022-08-03T04:49:11.375Z,82.71
2022-08-03T04:51:47.516Z,82.58
2022-08-03T04:54:23.545Z,82.15
2022-08-03T04:56:59.707Z,81.63
2022-08-03T04:59:35.898Z,81.28
2022-08-03T05:02:17.382Z,80.89
2022-08-03T05:04:53.930Z,80.59
2022-08-03T05:07:36.291Z,80.63
2022-08-03T05:10:16.240Z,80.47
2022-08-03T05:12:54.042Z,79.86
2022-08-03T05:15:30.516Z,79.45
2022-08-03T05:18:10.661Z,79.16
2022-08-03T05:20:49.491Z,78.09
2022-08-03T05:23:25.549Z,76.58
2022-08-03T05:26:02.109Z,75.52
2022-08-03T05:28:38.050Z,74.17
2022-08-03T05:31:14.036Z,72.51
2022-08-03T05:33:50.233Z,70.94
2022-08-03T05:36:26.354Z,69.22
2022-08-03T05:39:02.988Z,67.53
2022-08-03T05:41:39.189Z,66.16
2022-08-03T05:44:15.589Z,65.14
2022-08-03T05:46:51.517Z,63.90
2022-08-03T05:49:27.565Z,63.59
2022-08-03T05:52:13.789Z,62.32
2022-08-03T05:54:56.677Z,60.11
2022-08-03T05:57:33.389Z,59.77
2022-08-03T06:00:13.864Z,58.65
2022-08-03T06:02:51.581Z,58.27
2022-08-03T06:05:28.772Z,57.19
2022-08-03T06:08:05.206Z,56.05
2022-08-03T06:10:41.253Z,55.56
2022-08-03T06:13:17.203Z,55.36
2022-08-03T06:15:53.402Z,54.08
2022-08-03T06:18:29.317Z,53.52
2022-08-03T06:21:15.646Z,52.80
2022-08-03T06:23:54.122Z,52.33
2022-08-03T06:26:33.910Z,52.13
2022-08-03T06:29:10.035Z,51.53
2022-08-03T06:31:46.065Z,51.01
2022-08-03T06:34:32.100Z,50.27
2022-08-03T06:37:12.224Z,50.36
2022-08-03T06:39:48.375Z,50.11
2022-08-03T06:42:24.651Z,49.73
2022-08-03T06:45:01.512Z,48.65
2022-08-03T06:47:38.378Z,48.24
2022-08-03T06:50:26.268Z,48.75
2022-08-03T06:53:03.410Z,48.26
2022-08-03T06:55:40.782Z,47.84
2022-08-03T06:58:18.620Z,47.98
2022-08-03T07:00:54.949Z,47.51
2022-08-03T07:03:31.730Z,47.23
2022-08-03T07:06:09.324Z,47.25
2022-08-03T07:08:45.421Z,46.73
2022-08-03T07:11:21.370Z,46.00
2022-08-03T07:13:57.620Z,45.48
2022-08-03T07:16:33.571Z,45.42
2022-08-03T07:19:09.540Z,45.64
2022-08-03T07:21:46.051Z,46.11
2022-08-03T07:24:21.972Z,46.67
2022-08-03T07:26:57.909Z,47.87
2022-08-03T07:29:34.703Z,48.26
2022-08-03T07:32:11.722Z,48.73
2022-08-03T07:34:47.731Z,49.42
2022-08-03T07:37:23.791Z,49.57
2022-08-03T07:40:00.482Z,49.57
2022-08-03T07:42:36.691Z,49.69
2022-08-03T07:45:16.729Z,49.39
2022-08-03T07:47:53.910Z,48.97
2022-08-03T07:50:31.168Z,48.47
2022-08-03T07:53:07.288Z,48.05
2022-08-03T07:55:44.709Z,47.17
2022-08-03T07:58:24.386Z,47.08
2022-08-03T08:01:00.724Z,45.87
2022-08-03T08:03:52.410Z,45.73
2022-08-03T08:06:31.871Z,45.22
2022-08-03T08:09:08.059Z,45.00
2022-08-03T08:11:44.159Z,44.86
2022-08-03T08:14:20.153Z,44.85
2022-08-03T08:16:56.020Z,45.84
2022-08-03T08:19:31.979Z,45.58
2022-08-03T08:22:12.725Z,46.14
2022-08-03T08:24:51.188Z,45.95
2022-08-03T08:27:28.426Z,44.84
2022-08-03T08:30:26.004Z,44.72
2022-08-03T08:33:02.489Z,43.98
2022-08-03T08:35:38.537Z,44.94
2022-08-03T08:38:15.348Z,44.55
2022-08-03T08:40:52.688Z,43.67
2022-08-03T08:43:29.242Z,43.41
2022-08-03T08:46:08.556Z,44.06
2022-08-03T08:48:50.289Z,44.34
2022-08-03T08:51:59.391Z,44.01
2022-08-03T08:54:33.678Z,44.73
2022-08-03T08:57:26.765Z,44.82
2022-08-03T09:00:14.460Z,45.33
2022-08-03T09:02:51.354Z,44.69
2022-08-03T09:05:47.395Z,45.06
2022-08-03T09:08:24.384Z,45.63
2022-08-03T09:11:00.939Z,44.30
2022-08-03T09:13:37.529Z,44.48
2022-08-03T09:16:24.050Z,44.37
2022-08-03T09:19:15.084Z,43.53
2022-08-03T09:22:11.008Z,42.98
2022-08-03T09:25:23.886Z,43.80
2022-08-03T09:27:58.727Z,43.56
2022-08-03T09:30:36.014Z,44.17
2022-08-03T09:33:16.552Z,44.34
2022-08-03T09:35:57.816Z,44.24
2022-08-03T09:38:34.711Z,44.07
2022-08-03T09:41:21.589Z,44.22
2022-08-03T09:43:57.902Z,43.62
2022-08-03T09:46:34.387Z,43.64
2022-08-03T09:49:18.147Z,44.91
2022-08-03T09:52:31.569Z,43.55
2022-08-03T09:54:55.586Z,43.40
2022-08-03T09:57:32.648Z,43.76
2022-08-03T10:00:18.410Z,43.89
2022-08-03T10:03:08.259Z,43.21
2022-08-03T10:05:45.451Z,43.47
2022-08-03T10:08:23.449Z,45.79
2022-08-03T10:11:00.749Z,44.60
2022-08-03T10:13:37.588Z,43.70
2022-08-03T10:16:23.182Z,43.80
2022-08-03T10:19:02.182Z,44.30
2022-08-03T10:21:43.869Z,44.83
2022-08-03T10:24:28.279Z,45.69
2022-08-03T10:27:08.610Z,45.91
2022-08-03T10:29:51.514Z,46.14
2022-08-03T10:32:35.743Z,45.65
2022-08-03T10:35:20.112Z,45.69
2022-08-03T10:38:06.199Z,45.60
2022-08-03T10:40:53.493Z,45.75
2022-08-03T10:43:44.716Z,45.88
2022-08-03T10:46:22.900Z,46.21
2022-08-03T10:49:00.061Z,45.66
2022-08-03T10:51:37.267Z,45.85
2022-08-03T10:55:07.403Z,46.30
2022-08-03T10:57:58.632Z,46.56
2022-08-03T11:00:53.472Z,46.16
2022-08-03T11:03:29.475Z,47.15
2022-08-03T11:06:22.915Z,46.08
2022-08-03T11:09:22.833Z,46.89
2022-08-03T11:11:59.023Z,47.66
2022-08-03T11:14:51.302Z,47.23
2022-08-03T11:17:27.921Z,46.56
2022-08-03T11:20:05.578Z,46.59
2022-08-03T11:22:57.108Z,46.95
2022-08-03T11:26:10.624Z,46.10
2022-08-03T11:28:49.350Z,46.10
2022-08-03T11:31:52.274Z,45.85
2022-08-03T11:34:28.786Z,46.56
2022-08-03T11:37:33.170Z,46.57
2022-08-03T11:40:38.800Z,46.65
2022-08-03T11:43:48.415Z,46.34
2022-08-03T11:46:29.609Z,46.17
2022-08-03T11:49:12.590Z,46.98
2022-08-03T11:51:54.495Z,45.72
2022-08-03T11:54:31.028Z,45.34
2022-08-03T11:57:07.983Z,46.07
2022-08-03T11:59:43.854Z,46.21
2022-08-03T12:02:19.794Z,46.23
2022-08-03T12:05:01.605Z,45.54
2022-08-03T12:08:05.039Z,45.20
2022-08-03T12:10:49.189Z,45.73
2022-08-03T12:14:33.013Z,46.11
2022-08-03T12:16:29.098Z,47.45
2022-08-03T12:19:08.275Z,47.83
2022-08-03T12:21:57.308Z,46.96
2022-08-03T12:24:47.248Z,46.73
2022-08-03T12:27:31.468Z,46.84
2022-08-03T12:30:14.175Z,47.33
2022-08-03T12:32:51.162Z,46.66
2022-08-03T12:35:30.428Z,46.94
2022-08-03T12:38:07.101Z,46.33
2022-08-03T12:40:43.330Z,45.77
2022-08-03T12:43:19.928Z,45.70
2022-08-03T12:46:10.146Z,44.90
2022-08-03T12:49:15.452Z,45.34
2022-08-03T12:52:07.788Z,45.58
2022-08-03T12:54:45.942Z,44.86
2022-08-03T12:57:22.219Z,44.51
2022-08-03T13:00:21.172Z,44.58
2022-08-03T13:03:39.374Z,44.76
2022-08-03T13:06:11.707Z,44.61
2022-08-03T13:08:49.116Z,43.55
2022-08-03T13:11:57.237Z,42.49
2022-08-03T13:14:25.856Z,42.61
2022-08-03T13:17:02.072Z,42.87
2022-08-03T13:19:39.951Z,41.97
2022-08-03T13:22:22.895Z,42.08
2022-08-03T13:25:01.435Z,41.90
2022-08-03T13:28:13.780Z,42.28
2022-08-03T13:30:33.556Z,42.73
2022-08-03T13:33:11.301Z,42.02
2022-08-03T13:35:47.586Z,41.67
2022-08-03T13:38:27.203Z,42.42
2022-08-03T13:41:07.045Z,42.29
2022-08-03T13:43:43.535Z,41.08
2022-08-03T13:46:20.505Z,40.91
2022-08-03T13:48:56.599Z,40.54
2022-08-03T13:51:33.187Z,40.57
2022-08-03T13:54:09.765Z,41.93
2022-08-03T13:56:52.846Z,40.29
2022-08-03T13:59:29.233Z,40.66
2022-08-03T14:02:05.857Z,39.96
2022-08-03T14:04:41.814Z,39.16
2022-08-03T14:07:17.896Z,40.27
2022-08-03T14:09:54.186Z,39.34
2022-08-03T14:12:30.222Z,40.23
2022-08-03T14:15:10.179Z,40.24
2022-08-03T14:17:50.014Z,40.47
2022-08-03T14:20:38.683Z,40.43
2022-08-03T14:23:23.320Z,40.90
2022-08-03T14:26:00.914Z,40.73
2022-08-03T14:28:37.140Z,41.12
2022-08-03T14:32:09.055Z,41.38
2022-08-03T14:34:09.321Z,41.49
2022-08-03T14:36:47.274Z,41.16
2022-08-03T14:39:23.586Z,41.43
2022-08-03T14:41:59.672Z,41.25
2022-08-03T14:44:35.536Z,41.16
2022-08-03T14:47:11.776Z,41.11
2022-08-03T14:50:37.473Z,40.37
2022-08-03T14:52:44.072Z,40.58
2022-08-03T14:55:19.907Z,41.32
2022-08-03T14:57:56.921Z,41.05
2022-08-03T15:00:32.861Z,40.68
2022-08-03T15:03:09.217Z,40.62
2022-08-03T15:05:45.235Z,40.85
2022-08-03T15:08:21.484Z,41.69
2022-08-03T15:10:57.756Z,41.45
2022-08-03T15:13:33.721Z,41.03
2022-08-03T15:16:10.875Z,42.11
2022-08-03T15:18:47.359Z,42.64
2022-08-03T15:21:46.324Z,42.77
2022-08-03T15:24:19.266Z,43.10
2022-08-03T15:26:55.660Z,42.91
2022-08-03T15:30:06.716Z,42.49
2022-08-03T15:32:27.938Z,43.04
2022-08-03T15:35:04.466Z,42.59
2022-08-03T15:37:40.553Z,42.32
2022-08-03T15:40:17.906Z,42.14
2022-08-03T15:42:53.835Z,44.07
2022-08-03T15:45:35.242Z,45.52
2022-08-03T15:48:12.592Z,44.10
2022-08-03T15:50:48.619Z,43.39
2022-08-03T15:53:24.540Z,43.18
2022-08-03T15:56:01.073Z,43.29
2022-08-03T15:59:04.359Z,42.92
2022-08-03T16:01:34.753Z,43.65
2022-08-03T16:04:10.791Z,43.55
2022-08-03T16:06:46.670Z,43.66
2022-08-03T16:09:24.174Z,44.61
2022-08-03T16:12:18.524Z,44.06
2022-08-03T16:14:54.468Z,44.12
2022-08-03T16:17:31.006Z,43.85
2022-08-03T16:20:28.916Z,43.51
2022-08-03T16:23:11.205Z,43.47
2022-08-03T16:25:49.061Z,43.29
2022-08-03T16:28:25.114Z,43.03
2022-08-03T16:31:01.659Z,43.54
2022-08-03T16:33:37.861Z,43.09
2022-08-03T16:36:14.175Z,42.61
2022-08-03T16:38:50.194Z,43.19
2022-08-03T16:41:26.305Z,42.84
2022-08-03T16:44:22.617Z,42.96
2022-08-03T16:46:59.763Z,43.04
2022-08-03T16:49:54.747Z,43.44
2022-08-03T16:52:33.024Z,43.29
2022-08-03T16:55:15.381Z,43.79
2022-08-03T16:57:58.424Z,44.47
2022-08-03T17:00:41.564Z,45.13
2022-08-03T17:03:24.136Z,46.48
2022-08-03T17:06:01.755Z,47.52
2022-08-03T17:08:38.700Z,48.18
2022-08-03T17:11:16.588Z,48.67
2022-08-03T17:13:52.838Z,49.53
2022-08-03T17:16:28.917Z,49.82
2022-08-03T17:19:10.203Z,50.41
2022-08-03T17:21:53.036Z,50.41
2022-08-03T17:24:41.452Z,50.76
2022-08-03T17:28:48.843Z,50.97
2022-08-03T17:30:43.562Z,51.30
2022-08-03T17:33:20.867Z,52.03
2022-08-03T17:35:59.181Z,52.12
2022-08-03T17:38:35.782Z,52.23
2022-08-03T17:41:12.408Z,52.56
2022-08-03T17:44:14.955Z,52.90
2022-08-03T17:46:48.043Z,53.23
2022-08-03T17:49:26.343Z,53.59
2022-08-03T17:52:10.038Z,53.99
2022-08-03T17:55:58.552Z,54.47
2022-08-03T17:58:15.005Z,54.98
2022-08-03T18:01:58.490Z,55.39
2022-08-03T18:04:12.694Z,55.95
2022-08-03T18:06:56.088Z,56.23
2022-08-03T18:10:03.653Z,56.52
2022-08-03T18:12:42.977Z,57.12
2022-08-03T18:15:35.519Z,57.64
2022-08-03T18:18:12.353Z,58.41
2022-08-03T18:20:49.664Z,58.74
2022-08-03T18:23:36.677Z,59.60
2022-08-03T18:26:14.233Z,60.52
2022-08-03T18:28:54.913Z,61.09
2022-08-03T18:32:03.265Z,61.90
2022-08-03T18:34:33.456Z,63.08
2022-08-03T18:37:12.336Z,64.37
2022-08-03T18:39:57.861Z,65.06
2022-08-03T18:42:35.296Z,65.91
2022-08-03T18:45:14.693Z,66.25
2022-08-03T18:48:12.235Z,66.64
2022-08-03T18:51:02.970Z,66.93
2022-08-03T18:54:03.470Z,67.59
2022-08-03T18:56:52.788Z,67.93
2022-08-03T18:59:45.586Z,68.39
2022-08-03T19:02:42.142Z,68.89
2022-08-03T19:05:49.383Z,69.44
2022-08-03T19:08:38.236Z,69.54
2022-08-03T19:11:27.920Z,69.79
2022-08-03T19:14:11.448Z,70.05
2022-08-03T19:16:50.859Z,70.45
2022-08-03T19:19:28.530Z,70.78
2022-08-03T19:22:23.142Z,71.54
2022-08-03T19:25:02.829Z,71.63
2022-08-03T19:27:45.152Z,71.47
2022-08-03T19:30:39.028Z,71.59
2022-08-03T19:33:18.523Z,72.00
2022-08-03T19:35:57.137Z,72.14
2022-08-03T19:38:33.693Z,72.40
2022-08-03T19:41:14.864Z,72.69
2022-08-03T19:43:58.197Z,73.01
2022-08-03T19:46:41.612Z,73.55
2022-08-03T19:49:20.689Z,73.73
2022-08-03T19:52:00.941Z,73.90
2022-08-03T19:54:53.970Z,74.09
2022-08-03T19:57:33.823Z,74.25
2022-08-03T20:00:14.774Z,74.44
2022-08-03T20:02:52.484Z,74.32
2022-08-03T20:05:29.726Z,74.87
2022-08-03T20:08:23.122Z,75.06
2022-08-03T20:11:00.507Z,75.30
2022-08-03T20:13:39.131Z,75.34
2022-08-03T20:16:15.936Z,75.84
2022-08-03T20:18:52.123Z,75.90
2022-08-03T20:21:32.741Z,76.05
2022-08-03T20:24:23.301Z,76.53
2022-08-03T20:27:05.188Z,76.59
2022-08-03T20:30:06.477Z,76.86
2022-08-03T20:32:45.291Z,76.83
2022-08-03T20:35:21.377Z,76.71
2022-08-03T20:37:57.684Z,77.14
2022-08-03T20:40:35.802Z,77.62
2022-08-03T20:43:14.371Z,77.52
2022-08-03T20:46:00.052Z,77.79
2022-08-03T20:48:48.574Z,78.23
2022-08-03T20:51:50.448Z,78.35
2022-08-03T20:54:31.077Z,78.43
2022-08-03T20:57:11.549Z,78.56
2022-08-03T20:59:51.738Z,78.37
2022-08-03T21:02:30.053Z,78.44
2022-08-03T21:05:10.032Z,78.27
2022-08-03T21:08:05.625Z,78.38
2022-08-03T21:10:46.565Z,78.47
2022-08-03T21:13:45.518Z,78.61
2022-08-03T21:16:28.364Z,78.74
2022-08-03T21:19:09.859Z,78.83
2022-08-03T21:21:51.139Z,78.97
2022-08-03T21:24:31.938Z,78.94
2022-08-03T21:27:11.596Z,79.17
2022-08-03T21:29:52.981Z,79.36
2022-08-03T21:32:33.598Z,79.46
2022-08-03T21:35:14.164Z,79.44
2022-08-03T21:38:09.114Z,79.69
2022-08-03T21:40:45.841Z,79.76
2022-08-03T21:43:27.359Z,79.79
2022-08-03T21:46:08.970Z,79.82
2022-08-03T21:48:52.099Z,79.93
2022-08-03T21:51:33.126Z,80.04
2022-08-03T21:54:10.737Z,80.29
2022-08-03T21:56:54.263Z,80.40
2022-08-03T21:59:33.987Z,80.66
2022-08-03T22:02:11.486Z,80.61
2022-08-03T22:05:00.727Z,80.59
2022-08-03T22:07:42.598Z,80.66
2022-08-03T22:10:18.987Z,80.83
2022-08-03T22:12:55.128Z,80.99
2022-08-03T22:15:31.772Z,81.11
2022-08-03T22:18:08.475Z,81.03
2022-08-03T22:20:45.174Z,81.12
2022-08-03T22:23:26.788Z,81.35
2022-08-03T22:26:07.724Z,81.36
2022-08-03T22:28:44.724Z,81.26
2022-08-03T22:31:30.986Z,81.28
2022-08-03T22:34:18.018Z,81.51
2022-08-03T22:37:08.021Z,81.60
2022-08-03T22:39:48.065Z,81.57
2022-08-03T22:42:26.860Z,81.55
2022-08-03T22:45:05.493Z,81.42
2022-08-03T22:47:43.829Z,81.38
2022-08-03T22:50:33.460Z,81.73
2022-08-03T22:53:11.237Z,81.91
2022-08-03T22:55:48.544Z,82.06
2022-08-03T22:58:25.386Z,82.06
2022-08-03T23:01:07.800Z,82.09
2022-08-03T23:04:00.254Z,81.91
2022-08-03T23:06:42.549Z,81.83
2022-08-03T23:09:24.442Z,81.98
2022-08-03T23:12:04.221Z,81.79
2022-08-03T23:14:45.168Z,81.60
2022-08-03T23:17:23.607Z,81.72
2022-08-03T23:20:04.782Z,81.77
2022-08-03T23:22:45.274Z,81.61
2022-08-03T23:25:24.841Z,81.65
2022-08-03T23:28:06.143Z,81.56
2022-08-03T23:30:43.245Z,81.50
2022-08-03T23:33:22.024Z,81.61
2022-08-03T23:36:29.296Z,81.54
2022-08-03T23:39:03.276Z,81.65
2022-08-03T23:41:42.171Z,81.82
2022-08-03T23:44:20.085Z,81.90
2022-08-03T23:46:56.447Z,82.07
2022-08-03T23:49:32.551Z,82.40
2022-08-03T23:52:21.885Z,82.56
2022-08-03T23:55:17.890Z,82.50
2022-08-03T23:58:18.132Z,82.68
